METAR Data
IDs: Format: Raw Decoded Include TAF

Data at: 0615 UTC 24 Sep 2020

EGPH 240550Z VRB01KT 9999 BCFG FEW035 01/01 Q0993
EGPH 240520Z 23003KT 9999 BCFG NSC 00/00 Q0993
EGPH 240450Z VRB02KT 6000 R24/1400 BCFG NSC 01/01 Q0993
EGPH 240420Z 00000KT 6000 R24/0900 BCFG NSC 01/01 Q0993
EGPH 240350Z 26003KT CAVOK 02/02 Q0994
EGPH 240320Z 25003KT CAVOK 02/02 Q0994
EGPH 240250Z VRB01KT CAVOK 02/01 Q0994
EGPH 240220Z 25002KT CAVOK 03/02 Q0994
EGPH 240150Z 24001KT CAVOK 02/02 Q0995
EGPH 240120Z VRB03KT 9999 FEW027 03/03 Q0995
EGPH 240050Z 03002KT 9999 SCT024 04/03 Q0995
EGPH 240020Z 23002KT 9999 SCT024 04/03 Q0995
EGPH 232350Z 24003KT 9999 FEW025 04/03 Q0995
EGPH 232320Z VRB03KT 9999 SCT025 05/04 Q0996
EGPH 232250Z 23004KT 9999 SCT024 06/04 Q0996
EGPH 232220Z 25004KT 200V310 9999 SCT023 07/06 Q0996
EGPH 232150Z 25004KT 9999 FEW024 07/06 Q0997
EGPH 232120Z 21004KT CAVOK 06/05 Q0997
EGPH 232050Z 26003KT CAVOK 07/06 Q0997
EGPH 232020Z 25004KT 9999 FEW026 07/06 Q0998
EGPH 231950Z 31002KT 9999 SCT026 07/05 Q0998
EGPH 231920Z 31002KT 9999 BKN027 07/06 Q0998
EGPH 231850Z 01001KT CAVOK 08/06 Q0998
EGPH 231820Z 05002KT CAVOK 09/06 Q0998
EGPH 231750Z 07003KT CAVOK 09/05 Q0998
EGPH 231720Z 09004KT CAVOK 10/06 Q0998
EGPH 231650Z 08004KT CAVOK 11/06 Q0998
EGPH 231620Z 08005KT CAVOK 11/05 Q0999
EGPH 231550Z 07005KT 040V120 9999 FEW030 11/06 Q0999
EGPH 231520Z 06007KT CAVOK 12/06 Q0999
EGPH 231450Z 08007KT CAVOK 11/05 Q1000
EGPH 231420Z 06006KT 020V090 CAVOK 12/05 Q1000
EGPH 231350Z 07006KT CAVOK 12/05 Q1000
EGPH 231320Z 08006KT CAVOK 11/05 Q1001
EGPH 231250Z 07007KT CAVOK 12/05 Q1001
EGPH 231220Z 06006KT 030V090 9999 FEW036 12/05 Q1001
EGPH 231150Z 07007KT 9999 FEW043 12/05 Q1001
EGPH 231120Z 08005KT CAVOK 12/05 Q1001
EGPH 231050Z 04004KT 010V070 CAVOK 11/06 Q1001
EGPH 231020Z 06005KT 030V140 9999 FEW028 11/05 Q1001
EGPH 230950Z 06004KT 020V120 CAVOK 11/05 Q1001
EGPH 230920Z VRB03KT CAVOK 10/06 Q1002
EGPH 230850Z VRB03KT 9999 FEW038 09/07 Q1002
EGPH 230820Z VRB03KT 9999 OVC035 08/08 Q1002
EGPH 230750Z 26004KT 9999 OVC033 06/06 Q1002
EGPH 230720Z 25003KT 9999 FEW035 06/05 Q1001
EGPH 230650Z VRB01KT 9999 FEW037 04/04 Q1001
EGPH 230620Z VRB02KT 9999 FEW039 04/04 Q1001
EGPH 230550Z 23004KT CAVOK 03/03 Q1001
EGPH 230520Z VRB01KT CAVOK 04/04 Q1001
EGPH 230450Z 00000KT CAVOK 04/03 Q1001
EGPH 230420Z VRB02KT CAVOK 05/04 Q1001
EGPH 230350Z VRB02KT CAVOK 06/05 Q1000
EGPH 230320Z 19002KT CAVOK 06/06 Q1000
EGPH 230250Z 24003KT CAVOK 06/05 Q1000
EGPH 230220Z 25004KT CAVOK 07/05 Q1000
EGPH 230150Z 26004KT CAVOK 08/06 Q1000
EGPH 230120Z 27004KT CAVOK 09/07 Q0999
EGPH 230050Z 24007KT CAVOK 10/07 Q0999
EGPH 230020Z 25010KT CAVOK 11/08 Q0998
EGPH 222350Z 25008KT 9999 FEW015 11/09 Q0998
EGPH 222320Z 25011KT 9999 FEW022 12/10 Q0998
EGPH 222250Z 25012KT 9999 FEW016 12/10 Q0997
EGPH 222220Z 25011KT 9999 -RA FEW016 12/10 Q0997
EGPH 222150Z 25009KT 9999 -RA BKN027 13/11 Q0997
EGPH 222120Z 26010KT 9999 FEW015 BKN026 13/11 Q0997
EGPH 222050Z 24009KT 9999 -RA SCT008 SCT027 13/12 Q0997
EGPH 222020Z 23013KT 7000 -RA BKN011 OVC023 14/13 Q0996
EGPH 221950Z 23015KT 9999 OVC019 15/12 Q0996
EGPH 221920Z 22014KT 9999 BKN021 OVC045 15/12 Q0996
EGPH 221850Z 22013KT 9999 BKN020 15/11 Q0996
EGPH 221820Z 22015KT 9999 BKN020 15/11 Q0997